createdAt,value
2023-04-12T00:02:21.080Z,16.80
2023-04-12T00:04:55.464Z,16.80
2023-04-12T00:07:24.118Z,16.70
2023-04-12T00:09:51.324Z,16.70
2023-04-12T00:12:19.397Z,16.70
2023-04-12T00:14:47.192Z,16.70
2023-04-12T00:17:14.686Z,16.80
2023-04-12T00:19:44.980Z,16.70
2023-04-12T00:22:12.672Z,16.80
2023-04-12T00:24:40.997Z,16.70
2023-04-12T00:27:08.630Z,16.80
2023-04-12T00:29:35.567Z,16.80
2023-04-12T00:32:03.904Z,16.80
2023-04-12T00:34:31.331Z,16.70
2023-04-12T00:36:58.250Z,16.70
2023-04-12T00:39:25.193Z,16.70
2023-04-12T00:41:52.166Z,16.70
2023-04-12T00:44:19.200Z,16.80
2023-04-12T00:46:47.036Z,16.70
2023-04-12T00:49:15.589Z,16.70
2023-04-12T00:51:42.761Z,16.70
2023-04-12T00:54:09.736Z,16.70
2023-04-12T00:56:38.536Z,16.70
2023-04-12T00:59:05.669Z,16.80
2023-04-12T01:01:32.657Z,16.70
2023-04-12T01:04:04.927Z,16.70
2023-04-12T01:06:41.997Z,16.70
2023-04-12T01:09:21.054Z,16.70
2023-04-12T01:12:04.210Z,16.60
2023-04-12T01:14:49.001Z,16.60
2023-04-12T01:17:21.965Z,16.70
2023-04-12T01:19:57.859Z,16.70
2023-04-12T01:23:10.467Z,16.70
2023-04-12T01:25:52.661Z,16.70
2023-04-12T01:28:27.798Z,16.60
2023-04-12T01:30:55.160Z,16.60
2023-04-12T01:33:24.259Z,16.60
2023-04-12T01:35:53.112Z,16.60
2023-04-12T01:38:21.553Z,16.60
2023-04-12T01:40:49.050Z,16.60
2023-04-12T01:43:16.361Z,16.60
2023-04-12T01:45:43.435Z,16.60
2023-04-12T01:48:12.576Z,16.60
2023-04-12T01:51:03.154Z,16.60
2023-04-12T01:53:42.426Z,16.50
2023-04-12T01:56:10.642Z,16.60
2023-04-12T01:58:40.344Z,16.60
2023-04-12T02:01:08.643Z,16.50
2023-04-12T02:03:37.760Z,16.50
2023-04-12T02:06:06.646Z,16.40
2023-04-12T02:08:34.103Z,16.60
2023-04-12T02:11:01.132Z,16.50
2023-04-12T02:13:28.114Z,16.60
2023-04-12T02:15:55.430Z,16.60
2023-04-12T02:18:24.521Z,16.50
2023-04-12T02:20:51.442Z,16.50
2023-04-12T02:23:20.632Z,16.60
2023-04-12T02:25:48.090Z,16.50
2023-04-12T02:28:15.207Z,16.40
2023-04-12T02:30:42.163Z,16.50
2023-04-12T02:33:09.775Z,16.50
2023-04-12T02:35:37.523Z,16.40
2023-04-12T02:38:08.127Z,16.40
2023-04-12T02:40:38.556Z,16.40
2023-04-12T02:43:05.525Z,16.40
2023-04-12T02:45:33.891Z,16.40
2023-04-12T02:48:01.055Z,16.40
2023-04-12T02:50:28.773Z,16.40
2023-04-12T02:52:55.785Z,16.30
2023-04-12T02:55:22.564Z,16.40
2023-04-12T02:57:50.530Z,16.30
2023-04-12T03:00:18.056Z,16.40
2023-04-12T03:02:45.235Z,16.30
2023-04-12T03:05:12.374Z,16.40
2023-04-12T03:07:40.301Z,16.40
2023-04-12T03:10:08.192Z,16.30
2023-04-12T03:12:35.293Z,16.30
2023-04-12T03:15:02.801Z,16.30
2023-04-12T03:17:29.823Z,16.30
2023-04-12T03:20:00.643Z,16.40
2023-04-12T03:22:27.560Z,16.40
2023-04-12T03:24:55.355Z,16.40
2023-04-12T03:27:22.263Z,16.30
2023-04-12T03:29:49.352Z,16.30
2023-04-12T03:32:17.580Z,16.30
2023-04-12T03:34:45.727Z,16.30
2023-04-12T03:37:13.413Z,16.30
2023-04-12T03:39:40.335Z,16.30
2023-04-12T03:42:08.909Z,16.30
2023-04-12T03:44:38.551Z,16.30
2023-04-12T03:47:05.546Z,16.30
2023-04-12T03:49:32.927Z,16.30
2023-04-12T03:51:59.803Z,16.30
2023-04-12T03:54:27.098Z,16.30
2023-04-12T03:56:53.996Z,16.40
2023-04-12T03:59:21.026Z,16.30
2023-04-12T04:01:48.173Z,16.30
2023-04-12T04:04:15.580Z,16.20
2023-04-12T04:06:42.802Z,16.30
2023-04-12T04:09:09.786Z,16.20
2023-04-12T04:11:37.968Z,16.20
2023-04-12T04:14:04.998Z,16.20
2023-04-12T04:16:31.955Z,16.20
2023-04-12T04:18:58.979Z,16.10
2023-04-12T04:21:26.717Z,16.20
2023-04-12T04:23:58.690Z,16.20
2023-04-12T04:26:33.290Z,16.20
2023-04-12T04:29:04.844Z,16.20
2023-04-12T04:31:36.621Z,16.20
2023-04-12T04:34:05.699Z,16.10
2023-04-12T04:36:38.164Z,16.30
2023-04-12T04:39:05.185Z,16.20
2023-04-12T04:41:34.715Z,16.10
2023-04-12T04:44:01.862Z,16.20
2023-04-12T04:46:30.644Z,16.20
2023-04-12T04:48:58.780Z,16.10
2023-04-12T04:51:25.830Z,16.10
2023-04-12T04:53:52.832Z,16.20
2023-04-12T04:56:19.800Z,16.10
2023-04-12T04:58:46.935Z,16.10
2023-04-12T05:01:13.855Z,16.10
2023-04-12T05:03:41.256Z,16.20
2023-04-12T05:06:09.000Z,16.10
2023-04-12T05:08:36.350Z,16.10
2023-04-12T05:11:03.423Z,16.10
2023-04-12T05:13:30.512Z,16.10
2023-04-12T05:15:57.406Z,16.20
2023-04-12T05:18:24.327Z,16.10
2023-04-12T05:20:51.298Z,16.10
2023-04-12T05:23:18.345Z,16.10
2023-04-12T05:25:50.168Z,16.20
2023-04-12T05:28:17.645Z,16.10
2023-04-12T05:30:45.657Z,16.10
2023-04-12T05:33:12.672Z,16.10
2023-04-12T05:35:39.674Z,16.10
2023-04-12T05:38:06.599Z,16.00
2023-04-12T05:40:35.973Z,16.10
2023-04-12T05:43:03.793Z,16.10
2023-04-12T05:45:30.706Z,16.10
2023-04-12T05:47:57.548Z,16.10
2023-04-12T05:50:24.541Z,16.00
2023-04-12T05:52:51.697Z,16.00
2023-04-12T05:55:18.857Z,16.00
2023-04-12T05:57:48.789Z,16.00
2023-04-12T06:00:19.167Z,16.00
2023-04-12T06:02:46.751Z,16.10
2023-04-12T06:05:14.908Z,16.10
2023-04-12T06:07:46.987Z,16.10
2023-04-12T06:10:16.305Z,16.10
2023-04-12T06:12:43.553Z,16.10
2023-04-12T06:15:10.982Z,16.10
2023-04-12T06:17:38.448Z,16.10
2023-04-12T06:20:08.608Z,16.20
2023-04-12T06:22:36.322Z,16.10
2023-04-12T06:25:04.108Z,16.20
2023-04-12T06:27:31.519Z,16.20
2023-04-12T06:29:58.892Z,16.20
2023-04-12T06:32:26.116Z,16.20
2023-04-12T06:34:53.244Z,16.20
2023-04-12T06:37:21.413Z,16.20
2023-04-12T06:39:48.425Z,16.20
2023-04-12T06:42:16.195Z,16.30
2023-04-12T06:44:43.234Z,16.20
2023-04-12T06:47:10.271Z,16.20
2023-04-12T06:49:38.207Z,16.20
2023-04-12T06:52:05.156Z,16.20
2023-04-12T06:54:32.149Z,16.30
2023-04-12T06:57:00.125Z,16.40
2023-04-12T06:59:27.040Z,16.40
2023-04-12T07:01:53.954Z,16.30
2023-04-12T07:04:21.275Z,16.40
2023-04-12T07:06:48.446Z,16.40
2023-04-12T07:09:15.842Z,16.40
2023-04-12T07:11:43.319Z,16.50
2023-04-12T07:14:10.196Z,16.50
2023-04-12T07:16:38.874Z,16.60
2023-04-12T07:19:05.862Z,16.70
2023-04-12T07:21:32.969Z,16.70
2023-04-12T07:23:59.961Z,16.70
2023-04-12T07:26:27.261Z,16.70
2023-04-12T07:28:55.085Z,16.80
2023-04-12T07:31:23.667Z,16.80
2023-04-12T07:33:50.860Z,16.80
2023-04-12T07:36:21.428Z,16.90
2023-04-12T07:38:49.445Z,17.00
2023-04-12T07:41:18.540Z,17.00
2023-04-12T07:43:45.979Z,17.00
2023-04-12T07:46:12.930Z,17.10
2023-04-12T07:48:39.882Z,17.00
2023-04-12T07:51:09.235Z,17.20
2023-04-12T07:53:36.118Z,17.10
2023-04-12T07:56:05.466Z,17.10
2023-04-12T07:58:34.188Z,17.00
2023-04-12T08:01:01.508Z,17.00
2023-04-12T08:03:28.638Z,17.00
2023-04-12T08:05:55.726Z,17.00
2023-04-12T08:08:23.230Z,17.00
2023-04-12T08:10:51.323Z,17.00
2023-04-12T08:13:19.039Z,17.00
2023-04-12T08:15:47.801Z,17.00
2023-04-12T08:18:15.772Z,17.10
2023-04-12T08:20:44.396Z,17.00
2023-04-12T08:23:12.082Z,17.10
2023-04-12T08:25:39.655Z,17.00
2023-04-12T08:28:09.764Z,17.00
2023-04-12T08:30:36.983Z,17.10
2023-04-12T08:33:04.238Z,17.10
2023-04-12T08:35:31.889Z,17.10
2023-04-12T08:38:00.371Z,17.20
2023-04-12T08:40:27.655Z,17.30
2023-04-12T08:42:56.137Z,17.20
2023-04-12T08:45:29.272Z,17.20
2023-04-12T08:47:56.586Z,17.20
2023-04-12T08:50:24.382Z,17.20
2023-04-12T08:52:52.178Z,17.20
2023-04-12T08:55:21.236Z,17.30
2023-04-12T08:57:48.595Z,17.30
2023-04-12T09:00:16.910Z,17.30
2023-04-12T09:02:46.665Z,17.50
2023-04-12T09:05:14.995Z,17.40
2023-04-12T09:07:42.557Z,17.50
2023-04-12T09:10:09.537Z,17.70
2023-04-12T09:12:47.214Z,17.60
2023-04-12T09:15:15.835Z,17.70
2023-04-12T09:17:43.093Z,17.70
2023-04-12T09:20:12.791Z,17.80
2023-04-12T09:22:44.505Z,17.80
2023-04-12T09:25:12.356Z,17.80
2023-04-12T09:27:54.313Z,17.80
2023-04-12T09:30:21.386Z,17.90
2023-04-12T09:32:49.671Z,17.70
2023-04-12T09:35:16.989Z,17.80
2023-04-12T09:37:43.879Z,17.80
2023-04-12T09:40:11.354Z,17.90
2023-04-12T09:42:54.030Z,17.80
2023-04-12T09:45:26.030Z,18.00
2023-04-12T09:47:54.545Z,18.00
2023-04-12T09:50:27.521Z,18.10
2023-04-12T09:52:58.624Z,18.10
2023-04-12T09:55:27.897Z,18.20
2023-04-12T09:57:56.298Z,18.20
2023-04-12T10:00:26.964Z,18.30
2023-04-12T10:02:56.316Z,18.40
2023-04-12T10:05:26.657Z,18.40
2023-04-12T10:07:55.958Z,18.60
2023-04-12T10:10:23.529Z,18.60
2023-04-12T10:12:51.241Z,18.80
2023-04-12T10:15:18.886Z,18.90
2023-04-12T10:17:53.913Z,19.00
2023-04-12T10:20:23.326Z,19.20
2023-04-12T10:22:53.496Z,19.40
2023-04-12T10:25:23.973Z,19.50
2023-04-12T10:27:51.523Z,19.60
2023-04-12T10:30:29.686Z,19.80
2023-04-12T10:33:02.670Z,20.00
2023-04-12T10:35:50.441Z,20.10
2023-04-12T10:38:17.890Z,20.20
2023-04-12T10:41:07.902Z,20.10
2023-04-12T10:43:35.106Z,20.20
2023-04-12T10:46:05.367Z,20.40
2023-04-12T10:48:53.778Z,20.60
2023-04-12T10:51:25.428Z,20.70
2023-04-12T10:53:53.548Z,20.90
2023-04-12T10:56:32.951Z,21.10
2023-04-12T10:59:04.950Z,21.30
2023-04-12T11:01:32.976Z,21.30
2023-04-12T11:04:23.022Z,21.40
2023-04-12T11:06:53.783Z,21.60
2023-04-12T11:09:37.722Z,21.60
2023-04-12T11:12:04.670Z,21.70
2023-04-12T11:14:44.064Z,21.70
2023-04-12T11:17:14.702Z,21.80
2023-04-12T11:19:46.749Z,22.00
2023-04-12T11:22:19.233Z,22.00
2023-04-12T11:24:48.822Z,21.90
2023-04-12T11:27:16.525Z,21.70
2023-04-12T11:29:44.456Z,21.60
2023-04-12T11:32:14.373Z,21.40
2023-04-12T11:34:43.393Z,21.20
2023-04-12T11:37:10.689Z,21.10
2023-04-12T11:39:43.042Z,20.90
2023-04-12T11:42:18.285Z,20.90
2023-04-12T11:47:18.227Z,20.70
2023-04-12T11:49:47.582Z,20.80
2023-04-12T11:52:15.159Z,20.80
2023-04-12T11:54:46.690Z,20.50
2023-04-12T11:57:18.906Z,20.40
2023-04-12T11:59:47.741Z,20.30
2023-04-12T12:02:23.535Z,20.10
2023-04-12T12:04:52.436Z,20.10
2023-04-12T12:07:21.739Z,20.00
2023-04-12T12:09:50.159Z,20.10
2023-04-12T12:12:18.833Z,20.00
2023-04-12T12:14:47.530Z,20.20
2023-04-12T12:17:17.600Z,20.20
2023-04-12T12:19:46.232Z,20.30
2023-04-12T12:22:20.189Z,20.40
2023-04-12T12:24:50.066Z,20.40
2023-04-12T12:27:25.204Z,20.50
2023-04-12T12:29:56.040Z,20.50
2023-04-12T12:32:23.804Z,20.50
2023-04-12T12:34:58.389Z,20.60
2023-04-12T12:37:27.291Z,20.60
2023-04-12T12:40:01.058Z,20.90
2023-04-12T12:42:28.222Z,21.30
2023-04-12T12:44:55.072Z,21.50
2023-04-12T12:47:22.003Z,21.70
2023-04-12T12:49:48.872Z,21.80
2023-04-12T12:52:17.813Z,21.80
2023-04-12T12:54:45.025Z,21.80
2023-04-12T12:57:12.145Z,21.80
2023-04-12T12:59:39.205Z,21.70
2023-04-12T13:02:07.431Z,21.70
2023-04-12T13:04:35.919Z,21.80
2023-04-12T13:07:03.065Z,21.80
2023-04-12T13:09:31.704Z,21.80
2023-04-12T13:11:59.956Z,21.60
2023-04-12T13:14:27.540Z,21.60
2023-04-12T13:16:54.466Z,21.50
2023-04-12T13:19:21.389Z,21.60
2023-04-12T13:21:49.471Z,21.60
2023-04-12T13:24:17.436Z,21.80
2023-04-12T13:26:44.225Z,21.80
2023-04-12T13:29:11.129Z,21.80
2023-04-12T13:31:38.140Z,21.80
2023-04-12T13:34:05.089Z,21.90
2023-04-12T13:36:31.998Z,21.80
2023-04-12T13:38:59.019Z,21.90
2023-04-12T13:41:26.408Z,22.00
2023-04-12T13:43:53.335Z,22.10
2023-04-12T13:46:20.650Z,22.20
2023-04-12T13:48:47.704Z,22.10
2023-04-12T13:51:14.621Z,22.00
2023-04-12T13:53:41.616Z,21.90
2023-04-12T13:56:08.775Z,21.90
2023-04-12T13:58:35.946Z,21.90
2023-04-12T14:01:03.121Z,21.90
2023-04-12T14:03:30.203Z,21.90
2023-04-12T14:05:57.326Z,21.80
2023-04-12T14:08:24.348Z,21.80
2023-04-12T14:10:51.275Z,21.60
2023-04-12T14:13:18.217Z,21.50
2023-04-12T14:15:45.027Z,21.40
2023-04-12T14:18:11.912Z,21.20
2023-04-12T14:20:38.928Z,21.10
2023-04-12T14:23:08.033Z,21.00
2023-04-12T14:25:37.615Z,21.00
2023-04-12T14:28:04.566Z,20.90
2023-04-12T14:30:31.569Z,20.80
2023-04-12T14:32:58.660Z,20.80
2023-04-12T14:35:25.599Z,20.80
2023-04-12T14:37:52.526Z,21.00
2023-04-12T14:40:19.536Z,21.10
2023-04-12T14:42:46.607Z,21.20
2023-04-12T14:45:14.632Z,21.40
2023-04-12T14:47:41.539Z,21.60
2023-04-12T14:50:08.853Z,21.50
2023-04-12T14:52:35.714Z,21.60
2023-04-12T14:55:02.661Z,21.60
2023-04-12T14:57:29.864Z,21.70
2023-04-12T14:59:56.946Z,21.70
2023-04-12T15:02:24.972Z,21.70
2023-04-12T15:04:52.020Z,21.70
2023-04-12T15:07:19.086Z,21.80
2023-04-12T15:09:46.215Z,21.70
2023-04-12T15:12:13.148Z,21.80
2023-04-12T15:14:41.749Z,21.80
2023-04-12T15:17:08.691Z,21.80
2023-04-12T15:19:35.813Z,21.70
2023-04-12T15:22:02.777Z,21.70
2023-04-12T15:24:31.142Z,21.70
2023-04-12T15:26:58.200Z,21.60
2023-04-12T15:29:28.262Z,21.60
2023-04-12T15:31:56.884Z,21.60
2023-04-12T15:34:25.254Z,21.60
2023-04-12T15:36:52.942Z,21.60
2023-04-12T15:39:20.443Z,21.70
2023-04-12T15:41:48.874Z,21.80
2023-04-12T15:44:16.214Z,22.00
2023-04-12T15:46:43.667Z,22.00
2023-04-12T15:49:11.018Z,22.10
2023-04-12T15:51:38.398Z,22.00
2023-04-12T15:54:06.276Z,21.90
2023-04-12T15:56:34.583Z,21.90
2023-04-12T15:59:01.814Z,21.90
2023-04-12T16:01:28.902Z,21.70
2023-04-12T16:03:56.502Z,21.70
2023-04-12T16:06:25.368Z,21.70
2023-04-12T16:08:54.742Z,21.70
2023-04-12T16:11:24.015Z,21.70
2023-04-12T16:13:52.490Z,21.70
2023-04-12T16:16:23.527Z,21.60
2023-04-12T16:18:51.648Z,21.60
2023-04-12T16:21:20.834Z,21.60
2023-04-12T16:23:48.848Z,21.50
2023-04-12T16:26:22.105Z,21.50
2023-04-12T16:28:55.647Z,21.40
2023-04-12T16:31:23.028Z,21.50
2023-04-12T16:33:51.190Z,21.40
2023-04-12T16:36:18.943Z,21.40
2023-04-12T16:38:46.369Z,21.40
2023-04-12T16:41:13.380Z,21.40
2023-04-12T16:43:44.879Z,21.30
2023-04-12T16:46:12.518Z,21.40
2023-04-12T16:48:41.220Z,21.40
2023-04-12T16:51:08.353Z,21.30
2023-04-12T16:53:36.005Z,21.30
2023-04-12T16:56:02.976Z,21.30
2023-04-12T16:58:30.114Z,21.20
2023-04-12T17:00:58.012Z,21.10
2023-04-12T17:03:25.957Z,21.10
2023-04-12T17:05:53.153Z,21.10
2023-04-12T17:08:20.079Z,21.10
2023-04-12T17:10:47.102Z,21.10
2023-04-12T17:13:17.139Z,21.00
2023-04-12T17:15:48.032Z,20.90
2023-04-12T17:18:15.639Z,20.90
2023-04-12T17:20:42.978Z,20.70
2023-04-12T17:23:10.312Z,20.60
2023-04-12T17:25:37.927Z,20.50
2023-04-12T17:28:05.305Z,20.50
2023-04-12T17:30:32.495Z,20.40
2023-04-12T17:33:01.829Z,20.30
2023-04-12T17:35:29.132Z,20.20
2023-04-12T17:37:56.606Z,20.10
2023-04-12T17:40:23.569Z,20.10
2023-04-12T17:42:50.634Z,20.00
2023-04-12T17:45:21.983Z,19.90
2023-04-12T17:47:49.237Z,19.90
2023-04-12T17:50:16.201Z,19.70
2023-04-12T17:52:43.113Z,19.70
2023-04-12T17:55:10.677Z,19.60
2023-04-12T17:57:37.787Z,19.50
2023-04-12T18:00:08.296Z,19.50
2023-04-12T18:02:35.318Z,19.40
2023-04-12T18:05:03.187Z,19.30
2023-04-12T18:07:30.602Z,19.30
2023-04-12T18:09:57.629Z,19.20
2023-04-12T18:12:25.474Z,19.10
2023-04-12T18:14:52.514Z,19.00
2023-04-12T18:17:19.373Z,18.90
2023-04-12T18:19:46.252Z,18.90
2023-04-12T18:22:13.239Z,18.80
2023-04-12T18:24:40.255Z,18.80
2023-04-12T18:27:07.201Z,18.80
2023-04-12T18:29:34.866Z,18.70
2023-04-12T18:32:02.064Z,18.70
2023-04-12T18:34:28.887Z,18.70
2023-04-12T18:36:55.807Z,18.60
2023-04-12T18:39:22.596Z,18.60
2023-04-12T18:41:49.552Z,18.60
2023-04-12T18:44:19.270Z,18.60
2023-04-12T18:46:46.569Z,18.50
2023-04-12T18:49:14.523Z,18.50
2023-04-12T18:51:44.423Z,18.50
2023-04-12T18:54:16.256Z,18.40
2023-04-12T18:56:44.703Z,18.40
2023-04-12T18:59:17.925Z,18.40
2023-04-12T19:01:47.466Z,18.30
2023-04-12T19:04:17.060Z,18.30
2023-04-12T19:06:46.996Z,18.20
2023-04-12T19:09:15.456Z,18.20
2023-04-12T19:11:42.473Z,18.20
2023-04-12T19:14:09.421Z,18.10
2023-04-12T19:16:38.783Z,18.10
2023-04-12T19:19:06.337Z,18.00
2023-04-12T19:21:42.476Z,18.00
2023-04-12T19:24:11.621Z,17.90
2023-04-12T19:26:41.874Z,17.80
2023-04-12T19:29:08.700Z,17.80
2023-04-12T19:31:36.883Z,17.70
2023-04-12T19:34:07.194Z,17.60
2023-04-12T19:36:36.297Z,17.60
2023-04-12T19:39:05.825Z,17.50
2023-04-12T19:41:37.468Z,17.50
2023-04-12T19:44:17.773Z,17.50
2023-04-12T19:46:54.221Z,17.50
2023-04-12T19:49:26.506Z,17.40
2023-04-12T19:51:56.951Z,17.40
2023-04-12T19:54:31.510Z,17.50
2023-04-12T19:57:07.808Z,17.30
2023-04-12T19:59:36.967Z,17.40
2023-04-12T20:02:07.282Z,17.30
2023-04-12T20:04:39.486Z,17.30
2023-04-12T20:07:12.949Z,17.40
2023-04-12T20:09:41.468Z,17.40
2023-04-12T20:12:17.505Z,17.40
2023-04-12T20:14:48.777Z,17.40
2023-04-12T20:17:21.180Z,17.50
2023-04-12T20:19:53.618Z,17.40
2023-04-12T20:22:28.604Z,17.40
2023-04-12T20:25:02.035Z,17.30
2023-04-12T20:27:33.183Z,17.30
2023-04-12T20:30:02.982Z,17.30
2023-04-12T20:32:30.527Z,17.30
2023-04-12T20:34:59.361Z,17.30
2023-04-12T20:37:28.840Z,17.40
2023-04-12T20:39:57.728Z,17.30
2023-04-12T20:42:27.550Z,17.40
2023-04-12T20:44:56.634Z,17.40
2023-04-12T20:47:27.912Z,17.40
2023-04-12T20:49:57.134Z,17.30
2023-04-12T20:52:25.436Z,17.20
2023-04-12T20:54:54.519Z,17.20
2023-04-12T20:57:22.666Z,17.20
2023-04-12T20:59:51.635Z,17.20
2023-04-12T21:02:18.686Z,17.10
2023-04-12T21:04:45.969Z,17.10
2023-04-12T21:07:13.236Z,17.10
2023-04-12T21:09:40.197Z,17.10
2023-04-12T21:12:08.878Z,17.00
2023-04-12T21:14:37.825Z,16.90
2023-04-12T21:17:07.500Z,17.00
2023-04-12T21:19:41.709Z,16.90
2023-04-12T21:22:08.831Z,16.90
2023-04-12T21:24:38.523Z,16.80
2023-04-12T21:27:09.395Z,16.80
2023-04-12T21:29:41.384Z,16.80
2023-04-12T21:32:09.579Z,16.80
2023-04-12T21:34:37.484Z,16.80
2023-04-12T21:37:05.495Z,16.70
2023-04-12T21:39:33.033Z,16.70
2023-04-12T21:41:59.919Z,16.70
2023-04-12T21:44:27.277Z,16.70
2023-04-12T21:46:54.247Z,16.70
2023-04-12T21:49:21.436Z,16.70
2023-04-12T21:51:49.243Z,16.70
2023-04-12T21:54:16.855Z,16.60
2023-04-12T21:56:43.923Z,16.70
2023-04-12T21:59:10.988Z,16.60
2023-04-12T22:01:38.086Z,16.60
2023-04-12T22:04:05.204Z,16.60
2023-04-12T22:06:32.154Z,16.50
2023-04-12T22:09:02.550Z,16.50
2023-04-12T22:11:30.591Z,16.60
2023-04-12T22:13:58.165Z,16.60
2023-04-12T22:16:25.327Z,16.60
2023-04-12T22:18:52.853Z,16.70
2023-04-12T22:21:20.711Z,16.70
2023-04-12T22:23:47.506Z,16.60
2023-04-12T22:26:15.294Z,16.60
2023-04-12T22:28:44.258Z,16.70
2023-04-12T22:31:16.454Z,16.70
2023-04-12T22:33:43.873Z,16.70
2023-04-12T22:36:10.992Z,16.70
2023-04-12T22:38:38.493Z,16.70
2023-04-12T22:41:06.232Z,16.70
2023-04-12T22:43:42.195Z,16.70
2023-04-12T22:46:16.254Z,16.80
2023-04-12T22:48:49.933Z,16.80
2023-04-12T22:51:16.871Z,16.80
2023-04-12T22:53:43.760Z,16.80
2023-04-12T22:56:11.351Z,16.80
2023-04-12T22:58:40.339Z,16.80
2023-04-12T23:01:07.552Z,16.80
2023-04-12T23:03:34.744Z,16.90
2023-04-12T23:06:02.206Z,16.80
2023-04-12T23:08:29.369Z,16.90
2023-04-12T23:11:02.576Z,16.80
2023-04-12T23:13:30.153Z,16.90
2023-04-12T23:15:57.812Z,16.80
2023-04-12T23:18:25.867Z,16.80
2023-04-12T23:20:54.215Z,16.80
2023-04-12T23:23:24.762Z,16.80
2023-04-12T23:25:52.413Z,16.80
2023-04-12T23:28:19.683Z,16.90
2023-04-12T23:30:49.431Z,16.80
2023-04-12T23:33:20.777Z,16.80
2023-04-12T23:35:49.646Z,16.90
2023-04-12T23:38:24.514Z,16.90
2023-04-12T23:40:54.039Z,16.80
2023-04-12T23:43:22.187Z,16.80
2023-04-12T23:45:49.267Z,16.80
2023-04-12T23:48:19.365Z,16.80
2023-04-12T23:50:47.021Z,16.80
2023-04-12T23:53:14.465Z,16.70
2023-04-12T23:55:48.920Z,16.80
2023-04-12T23:58:16.358Z,16.80
